South Lee, Massachusetts
Current Conditions -  °F | °C
As of 12:54 AM on Saturday 25 Oct 2014 (Local Time) from KPSF Reporting Station
Clear Clear  
Wind Chill: 41°   Ceiling: Unl
Heat Index: 44°   Visibility: 10mi
Dew Point: 41°   Wind: 6mph
Humidity: 89%   Direction: 310°NW
Pressure: 29.82"   Gusts: NA
Location:  42.28°N, 73.28°W
Report Text: KPSF 250454Z AUTO 31005KT 10SM CLR 07/05 A2982 RMK AO2 SLP095 T00670050 400890056
Loading
Personal Weather Stations






























Interactive Weather Map
Tropical Storm Tracking
New forecast layout! Learn more

10-Day Weather Forecast

Advertisements
Track Severe Weather on mobile